| time (UTC) | temp C | wind direction | speed KPH | gust KPH | rain 1hr cm | rain 24hr cm | rain mn cm | humidity % | barometer mb |
| 20260507225017 | 18 | 135 | 9.7 | 20.9 | 0.00 | 0.00 | 0.00 | 78 | 1011.1 |
| 20260507224517 | 18 | 135 | 9.7 | 17.7 | 0.00 | 0.00 | 0.00 | 78 | 1011.0 |
| 20260507224037 | 18 | 135 | 6.4 | 14.5 | 0.00 | 0.00 | 0.00 | 78 | 1010.8 |
| 20260507223517 | 18 | 135 | 6.4 | 14.5 | 0.00 | 0.00 | 0.00 | 77 | 1010.9 |
| 20260507223016 | 18 | 135 | 8.0 | 14.5 | 0.00 | 0.00 | 0.00 | 77 | 1011.0 |
| 20260507222517 | 18 | 135 | 8.0 | 14.5 | 0.00 | 0.00 | 0.00 | 77 | 1011.1 |
| 20260507222017 | 18 | 135 | 8.0 | 11.3 | 0.00 | 0.00 | 0.00 | 76 | 1011.0 |
| 20260507221516 | 18 | 135 | 11.3 | 17.7 | 0.00 | 0.00 | 0.00 | 76 | 1011.0 |
| 20260507221019 | 18 | 135 | 9.7 | 16.1 | 0.00 | 0.00 | 0.00 | 75 | 1010.9 |
| 20260507220516 | 18 | 135 | 6.4 | 9.7 | 0.00 | 0.00 | 0.00 | 74 | 1010.9 |
| 20260507220017 | 18 | 135 | 4.8 | 8.0 | 0.00 | 0.00 | 0.00 | 74 | 1010.9 |
| 20260507215516 | 18 | 158 | 8.0 | 11.3 | 0.00 | 0.00 | 0.00 | 74 | 1010.9 |
| 20260507215016 | 18 | 158 | 6.4 | 17.7 | 0.00 | 0.00 | 0.00 | 74 | 1010.9 |
| 20260507214516 | 18 | 180 | 8.0 | 16.1 | 0.00 | 0.00 | 0.00 | 74 | 1010.8 |
| 20260507214016 | 18 | 158 | 8.0 | 17.7 | 0.00 | 0.00 | 0.00 | 74 | 1010.9 |
| 20260507213536 | 18 | 158 | 9.7 | 19.3 | 0.00 | 0.00 | 0.00 | 74 | 1010.8 |
| 20260507213016 | 18 | 158 | 8.0 | 17.7 | 0.00 | 0.00 | 0.00 | 73 | 1011.2 |
| 20260507212516 | 18 | 180 | 8.0 | 19.3 | 0.00 | 0.00 | 0.00 | 73 | 1011.0 |
| 20260507212016 | 18 | 203 | 14.5 | 27.4 | 0.00 | 0.00 | 0.00 | 73 | 1011.3 |
| 20260507211516 | 18 | 180 | 16.1 | 25.7 | 0.00 | 0.00 | 0.00 | 73 | 1011.4 |
| 20260507211016 | 18 | 203 | 12.9 | 27.4 | 0.00 | 0.00 | 0.00 | 72 | 1011.4 |
| 20260507210516 | 18 | 180 | 17.7 | 29.0 | 0.00 | 0.00 | 0.00 | 72 | 1011.4 |
| 20260507210016 | 18 | 180 | 9.7 | 20.9 | 0.00 | 0.00 | 0.00 | 72 | 1011.4 |
| 20260507205516 | 18 | 180 | 11.3 | 20.9 | 0.00 | 0.00 | 0.00 | 72 | 1011.3 |
| 20260507205016 | 18 | 180 | 14.5 | 22.5 | 0.00 | 0.00 | 0.00 | 72 | 1011.0 |
| 20260507204516 | 18 | 203 | 9.7 | 22.5 | 0.00 | 0.00 | 0.00 | 72 | 1010.8 |
| 20260507204016 | 18 | 180 | 12.9 | 22.5 | 0.00 | 0.00 | 0.00 | 72 | 1010.8 |
| 20260507203536 | 18 | 180 | 9.7 | 20.9 | 0.00 | 0.00 | 0.00 | 72 | 1010.8 |
| 20260507203016 | 18 | 203 | 8.0 | 19.3 | 0.00 | 0.00 | 0.00 | 71 | 1010.9 |
| 20260507202516 | 18 | 203 | 11.3 | 22.5 | 0.00 | 0.00 | 0.00 | 71 | 1010.9 |
| 20260507202016 | 18 | 203 | 9.7 | 19.3 | 0.00 | 0.00 | 0.00 | 71 | 1010.9 |
| 20260507201516 | 18 | 203 | 14.5 | 24.1 | 0.00 | 0.00 | 0.00 | 71 | 1010.8 |
| 20260507201016 | 18 | 203 | 12.9 | 20.9 | 0.00 | 0.00 | 0.00 | 71 | 1011.0 |
| 20260507200516 | 18 | 203 | 14.5 | 25.7 | 0.00 | 0.00 | 0.00 | 70 | 1011.1 |
| 20260507200016 | 18 | 203 | 14.5 | 25.7 | 0.00 | 0.00 | 0.00 | 70 | 1011.1 |
| 20260507195516 | 18 | 203 | 16.1 | 27.4 | 0.00 | 0.00 | 0.00 | 70 | 1011.0 |
| 20260507195018 | 18 | 203 | 12.9 | 25.7 | 0.00 | 0.00 | 0.00 | 69 | 1011.0 |
| 20260507194518 | 19 | 180 | 11.3 | 17.7 | 0.00 | 0.00 | 0.00 | 69 | 1010.7 |
| 20260507194018 | 19 | 203 | 12.9 | 19.3 | 0.00 | 0.00 | 0.00 | 69 | 1010.7 |
| 20260507193518 | 19 | 180 | 11.3 | 22.5 | 0.00 | 0.00 | 0.00 | 68 | 1010.8 |
| 20260507193058 | 19 | 158 | 9.7 | 19.3 | 0.00 | 0.00 | 0.00 | 68 | 1010.7 |
| 20260507192538 | 19 | 180 | 11.3 | 24.1 | 0.00 | 0.00 | 0.00 | 68 | 1010.6 |
| 20260507192018 | 19 | 180 | 14.5 | 25.7 | 0.00 | 0.00 | 0.00 | 67 | 1010.5 |
| 20260507191518 | 19 | 225 | 12.9 | 27.4 | 0.00 | 0.00 | 0.00 | 67 | 1010.5 |
| 20260507191018 | 19 | 203 | 16.1 | 27.4 | 0.00 | 0.00 | 0.00 | 67 | 1010.5 |
| 20260507190518 | 19 | 203 | 17.7 | 30.6 | 0.00 | 0.00 | 0.00 | 68 | 1010.5 |
| 20260507190018 | 19 | 203 | 12.9 | 22.5 | 0.00 | 0.00 | 0.00 | 67 | 1010.4 |
| 20260507185518 | 19 | 203 | 14.5 | 25.7 | 0.00 | 0.00 | 0.00 | 67 | 1010.3 |
| 20260507185018 | 19 | 203 | 16.1 | 29.0 | 0.00 | 0.00 | 0.00 | 67 | 1010.3 |
| 20260507184518 | 19 | 180 | 12.9 | 22.5 | 0.00 | 0.00 | 0.00 | 67 | 1010.0 |
| 20260507184058 | 19 | 203 | 16.1 | 27.4 | 0.00 | 0.00 | 0.00 | 67 | 1009.9 |
| 20260507183518 | 19 | 180 | 16.1 | 30.6 | 0.00 | 0.00 | 0.00 | 67 | 1009.9 |
| 20260507183018 | 19 | 158 | 16.1 | 27.4 | 0.00 | 0.00 | 0.00 | 66 | 1009.8 |
| 20260507182518 | 19 | 203 | 12.9 | 25.7 | 0.00 | 0.00 | 0.00 | 65 | 1010.0 |
| 20260507182018 | 19 | 158 | 17.7 | 32.2 | 0.00 | 0.00 | 0.00 | 65 | 1009.9 |
| 20260507181517 | 19 | 180 | 20.9 | 37.0 | 0.00 | 0.00 | 0.00 | 64 | 1010.2 |
| 20260507181017 | 20 | 203 | 25.7 | 38.6 | 0.00 | 0.00 | 0.00 | 64 | 1010.3 |
| 20260507180518 | 19 | 180 | 20.9 | 38.6 | 0.00 | 0.00 | 0.00 | 65 | 1010.4 |
| 20260507180017 | 19 | 180 | 17.7 | 32.2 | 0.00 | 0.00 | 0.00 | 65 | 1010.1 |
| 20260507175517 | 19 | 180 | 22.5 | 37.0 | 0.00 | 0.00 | 0.00 | 65 | 1010.1 |
| 20260507175017 | 19 | 180 | 20.9 | 32.2 | 0.00 | 0.00 | 0.00 | 65 | 1010.1 |
| 20260507174518 | 19 | 180 | 19.3 | 35.4 | 0.00 | 0.00 | 0.00 | 66 | 1010.2 |
| 20260507174017 | 19 | 158 | 19.3 | 29.0 | 0.00 | 0.00 | 0.00 | 66 | 1010.2 |
| 20260507173537 | 19 | 180 | 20.9 | 33.8 | 0.00 | 0.00 | 0.00 | 66 | 1010.3 |
| 20260507173018 | 19 | 180 | 20.9 | 37.0 | 0.00 | 0.00 | 0.00 | 66 | 1010.3 |
| 20260507172538 | 19 | 180 | 24.1 | 40.2 | 0.00 | 0.00 | 0.00 | 66 | 1010.2 |
| 20260507172017 | 19 | 180 | 27.4 | 46.7 | 0.00 | 0.00 | 0.00 | 66 | 1010.3 |
| 20260507171517 | 19 | 180 | 25.7 | 46.7 | 0.00 | 0.00 | 0.00 | 66 | 1010.5 |
| 20260507171018 | 19 | 180 | 24.1 | 51.5 | 0.00 | 0.00 | 0.00 | 66 | 1010.3 |
| 20260507170518 | 20 | 158 | 20.9 | 40.2 | 0.00 | 0.00 | 0.00 | 65 | 1010.3 |
| 20260507170017 | 20 | 158 | 27.4 | 46.7 | 0.00 | 0.00 | 0.00 | 65 | 1010.3 |
| 20260507165538 | 20 | 158 | 22.5 | 38.6 | 0.00 | 0.00 | 0.00 | 65 | 1010.0 |
| 20260507165018 | 20 | 158 | 22.5 | 46.7 | 0.00 | 0.00 | 0.00 | 65 | 1010.1 |
| 20260507164537 | 20 | 180 | 22.5 | 43.5 | 0.00 | 0.00 | 0.00 | 65 | 1010.0 |
| 20260507164017 | 20 | 158 | 24.1 | 38.6 | 0.00 | 0.00 | 0.00 | 64 | 1010.1 |
| 20260507163517 | 20 | 158 | 20.9 | 41.8 | 0.00 | 0.00 | 0.00 | 64 | 1010.2 |
| 20260507163017 | 20 | 158 | 24.1 | 40.2 | 0.00 | 0.00 | 0.00 | 64 | 1010.2 |
| 20260507162517 | 20 | 158 | 19.3 | 30.6 | 0.00 | 0.00 | 0.00 | 64 | 1010.3 |
| 20260507162017 | 20 | 158 | 22.5 | 46.7 | 0.00 | 0.00 | 0.00 | 64 | 1010.3 |
| 20260507161517 | 20 | 158 | 24.1 | 41.8 | 0.00 | 0.00 | 0.00 | 64 | 1010.2 |
| 20260507161017 | 20 | 158 | 20.9 | 37.0 | 0.00 | 0.00 | 0.00 | 65 | 1010.2 |
| 20260507160517 | 20 | 158 | 19.3 | 33.8 | 0.00 | 0.00 | 0.00 | 65 | 1010.0 |
| 20260507160017 | 20 | 158 | 24.1 | 40.2 | 0.00 | 0.00 | 0.00 | 64 | 1010.1 |
| 20260507155517 | 20 | 135 | 19.3 | 35.4 | 0.00 | 0.00 | 0.00 | 64 | 1010.1 |
| 20260507155058 | 20 | 158 | 19.3 | 37.0 | 0.00 | 0.00 | 0.00 | 63 | 1010.2 |
| 20260507154537 | 20 | 135 | 19.3 | 37.0 | 0.00 | 0.00 | 0.00 | 62 | 1010.0 |
| 20260507154017 | 20 | 158 | 19.3 | 41.8 | 0.00 | 0.00 | 0.00 | 62 | 1010.2 |
| 20260507153517 | 20 | 158 | 17.7 | 33.8 | 0.00 | 0.00 | 0.00 | 62 | 1010.2 |
| 20260507153017 | 20 | 135 | 17.7 | 33.8 | 0.00 | 0.00 | 0.00 | 62 | 1010.2 |
| 20260507152537 | 20 | 135 | 17.7 | 32.2 | 0.00 | 0.00 | 0.00 | 61 | 1010.2 |
| 20260507152017 | 21 | 135 | 17.7 | 32.2 | 0.00 | 0.00 | 0.00 | 61 | 1010.4 |
| 20260507151517 | 21 | 158 | 17.7 | 30.6 | 0.00 | 0.00 | 0.00 | 61 | 1010.2 |
| 20260507151017 | 21 | 135 | 19.3 | 38.6 | 0.00 | 0.00 | 0.00 | 61 | 1010.2 |
| 20260507150517 | 20 | 135 | 20.9 | 41.8 | 0.00 | 0.00 | 0.00 | 61 | 1010.1 |
| 20260507150017 | 21 | 135 | 19.3 | 35.4 | 0.00 | 0.00 | 0.00 | 61 | 1009.9 |
| 20260507145537 | 21 | 158 | 24.1 | 40.2 | 0.00 | 0.00 | 0.00 | 60 | 1009.9 |
| 20260507145017 | 20 | 135 | 19.3 | 37.0 | 0.00 | 0.00 | 0.00 | 60 | 1010.1 |
| 20260507144517 | 20 | 135 | 22.5 | 38.6 | 0.00 | 0.00 | 0.00 | 60 | 1010.1 |
| 20260507144017 | 21 | 135 | 20.9 | 46.7 | 0.00 | 0.00 | 0.00 | 59 | 1010.1 |
| 20260507143517 | 21 | 158 | 22.5 | 43.5 | 0.00 | 0.00 | 0.00 | 59 | 1010.2 |
| 20260507143017 | 21 | 135 | 20.9 | 35.4 | 0.00 | 0.00 | 0.00 | 59 | 1010.3 |
| 20260507142517 | 21 | 135 | 22.5 | 40.2 | 0.00 | 0.00 | 0.00 | 58 | 1010.6 |
| 20260507142017 | 21 | 135 | 19.3 | 40.2 | 0.00 | 0.00 | 0.00 | 58 | 1010.4 |
| 20260507141517 | 21 | 135 | 19.3 | 35.4 | 0.00 | 0.00 | 0.00 | 58 | 1010.6 |
| 20260507141017 | 21 | 135 | 16.1 | 30.6 | 0.00 | 0.00 | 0.00 | 57 | 1010.7 |
| 20260507140537 | 21 | 135 | 19.3 | 37.0 | 0.00 | 0.00 | 0.00 | 57 | 1010.8 |
| 20260507140037 | 21 | 135 | 17.7 | 33.8 | 0.00 | 0.00 | 0.00 | 56 | 1010.6 |
| 20260507135534 | 21 | 135 | 19.3 | 35.4 | 0.00 | 0.00 | 0.00 | 55 | 1010.7 |
| 20260507135017 | 21 | 135 | 19.3 | 40.2 | 0.00 | 0.00 | 0.00 | 55 | 1010.8 |
| 20260507134517 | 21 | 135 | 22.5 | 37.0 | 0.00 | 0.00 | 0.00 | 54 | 1010.7 |
| 20260507134017 | 21 | 113 | 19.3 | 35.4 | 0.00 | 0.00 | 0.00 | 54 | 1010.8 |
| 20260507133517 | 22 | 135 | 16.1 | 33.8 | 0.00 | 0.00 | 0.00 | 54 | 1010.8 |
| 20260507133017 | 22 | 135 | 27.4 | 41.8 | 0.00 | 0.00 | 0.00 | 52 | 1010.7 |
| 20260507132517 | 21 | 135 | 20.9 | 38.6 | 0.00 | 0.00 | 0.00 | 54 | 1011.0 |
| 20260507132017 | 22 | 135 | 19.3 | 33.8 | 0.00 | 0.00 | 0.00 | 53 | 1011.0 |
| 20260507131517 | 22 | 135 | 19.3 | 38.6 | 0.00 | 0.00 | 0.00 | 52 | 1011.2 |
| 20260507131017 | 22 | 135 | 25.7 | 40.2 | 0.00 | 0.00 | 0.00 | 51 | 1011.2 |
| 20260507130537 | 22 | 135 | 22.5 | 35.4 | 0.00 | 0.00 | 0.00 | 51 | 1011.1 |
| 20260507130017 | 22 | 135 | 20.9 | 40.2 | 0.00 | 0.00 | 0.00 | 52 | 1011.1 |
| 20260507125517 | 22 | 135 | 27.4 | 43.5 | 0.00 | 0.00 | 0.00 | 50 | 1011.1 |
| 20260507125017 | 22 | 135 | 20.9 | 37.0 | 0.00 | 0.00 | 0.00 | 52 | 1011.3 |
| 20260507124517 | 22 | 135 | 24.1 | 40.2 | 0.00 | 0.00 | 0.00 | 48 | 1011.4 |
| 20260507124017 | 22 | 135 | 24.1 | 38.6 | 0.00 | 0.00 | 0.00 | 48 | 1011.2 |
| 20260507123517 | 22 | 135 | 20.9 | 40.2 | 0.00 | 0.00 | 0.00 | 49 | 1011.2 |
| 20260507123017 | 22 | 135 | 19.3 | 33.8 | 0.00 | 0.00 | 0.00 | 48 | 1011.2 |
| 20260507122517 | 22 | 135 | 22.5 | 38.6 | 0.00 | 0.00 | 0.00 | 46 | 1011.4 |
| 20260507122017 | 22 | 135 | 22.5 | 33.8 | 0.00 | 0.00 | 0.00 | 47 | 1011.3 |
| 20260507121517 | 23 | 135 | 27.4 | 49.9 | 0.00 | 0.00 | 0.00 | 45 | 1011.3 |
| 20260507121017 | 22 | 135 | 24.1 | 43.5 | 0.00 | 0.00 | 0.00 | 45 | 1011.2 |
| 20260507120517 | 22 | 135 | 20.9 | 40.2 | 0.00 | 0.00 | 0.00 | 46 | 1011.2 |
| 20260507120017 | 22 | 135 | 24.1 | 41.8 | 0.00 | 0.00 | 0.00 | 45 | 1011.2 |
| 20260507115537 | 22 | 135 | 27.4 | 40.2 | 0.00 | 0.00 | 0.00 | 44 | 1011.1 |
| 20260507115057 | 23 | 135 | 25.7 | 45.1 | 0.00 | 0.00 | 0.00 | 42 | 1011.6 |
| 20260507114517 | 23 | 135 | 24.1 | 45.1 | 0.00 | 0.00 | 0.00 | 42 | 1011.5 |
| 20260507114017 | 22 | 113 | 25.7 | 40.2 | 0.00 | 0.00 | 0.00 | 43 | 1011.5 |
| 20260507113537 | 23 | 135 | 20.9 | 40.2 | 0.00 | 0.00 | 0.00 | 43 | 1011.5 |
| 20260507113017 | 23 | 135 | 16.1 | 29.0 | 0.00 | 0.00 | 0.00 | 46 | 1011.5 |
| 20260507112537 | 23 | 135 | 16.1 | 32.2 | 0.00 | 0.00 | 0.00 | 44 | 1011.4 |
| 20260507112016 | 23 | 158 | 24.1 | 37.0 | 0.00 | 0.00 | 0.00 | 42 | 1011.7 |
| 20260507111517 | 23 | 180 | 24.1 | 45.1 | 0.00 | 0.00 | 0.00 | 41 | 1011.6 |
| 20260507111037 | 23 | 158 | 20.9 | 35.4 | 0.00 | 0.00 | 0.00 | 40 | 1011.6 |
| 20260507110517 | 23 | 180 | 25.7 | 41.8 | 0.00 | 0.00 | 0.00 | 39 | 1011.7 |
| 20260507110017 | 23 | 180 | 27.4 | 43.5 | 0.00 | 0.00 | 0.00 | 36 | 1011.5 |
| 20260507105537 | 23 | 158 | 20.9 | 37.0 | 0.00 | 0.00 | 0.00 | 36 | 1011.5 |
| 20260507105017 | 23 | 180 | 22.5 | 48.3 | 0.00 | 0.00 | 0.00 | 37 | 1011.4 |
| 20260507104516 | 22 | 180 | 24.1 | 40.2 | 0.00 | 0.00 | 0.00 | 38 | 1011.6 |
| 20260507104037 | 22 | 180 | 27.4 | 43.5 | 0.00 | 0.00 | 0.00 | 38 | 1011.7 |
| 20260507103517 | 22 | 180 | 24.1 | 45.1 | 0.00 | 0.00 | 0.00 | 37 | 1011.8 |
| 20260507103017 | 22 | 180 | 20.9 | 43.5 | 0.00 | 0.00 | 0.00 | 37 | 1011.5 |
| 20260507102516 | 22 | 158 | 19.3 | 45.1 | 0.00 | 0.00 | 0.00 | 36 | 1011.6 |
| 20260507102016 | 23 | 135 | 20.9 | 35.4 | 0.00 | 0.00 | 0.00 | 36 | 1011.7 |
| 20260507101517 | 23 | 158 | 25.7 | 56.3 | 0.00 | 0.00 | 0.00 | 34 | 1011.6 |
| 20260507101017 | 23 | 135 | 20.9 | 56.3 | 0.00 | 0.00 | 0.00 | 36 | 1011.9 |
| 20260507100516 | 23 | 158 | 16.1 | 27.4 | 0.00 | 0.00 | 0.00 | 37 | 1012.0 |
| 20260507100016 | 23 | 158 | 22.5 | 38.6 | 0.00 | 0.00 | 0.00 | 36 | 1012.1 |
| 20260507095537 | 23 | 158 | 22.5 | 35.4 | 0.00 | 0.00 | 0.00 | 35 | 1012.1 |
| 20260507095016 | 23 | 158 | 25.7 | 37.0 | 0.00 | 0.00 | 0.00 | 35 | 1012.1 |
| 20260507094517 | 23 | 180 | 24.1 | 51.5 | 0.00 | 0.00 | 0.00 | 34 | 1012.1 |
| 20260507094016 | 23 | 135 | 24.1 | 40.2 | 0.00 | 0.00 | 0.00 | 37 | 1012.1 |
| 20260507093536 | 23 | 135 | 25.7 | 41.8 | 0.00 | 0.00 | 0.00 | 35 | 1012.1 |
| 20260507093037 | 22 | 158 | 25.7 | 46.7 | 0.00 | 0.00 | 0.00 | 38 | 1012.0 |
| 20260507092537 | 23 | 180 | 25.7 | 53.1 | 0.00 | 0.00 | 0.00 | 34 | 1012.0 |
| 20260507092016 | 23 | 180 | 30.6 | 53.1 | 0.00 | 0.00 | 0.00 | 35 | 1012.1 |
| 20260507091537 | 22 | 180 | 22.5 | 43.5 | 0.00 | 0.00 | 0.00 | 36 | 1012.0 |
| 20260507091036 | 22 | 180 | 24.1 | 41.8 | 0.00 | 0.00 | 0.00 | 39 | 1012.0 |
| 20260507090516 | 22 | 180 | 20.9 | 33.8 | 0.00 | 0.00 | 0.00 | 39 | 1012.1 |
| 20260507090016 | 22 | 158 | 20.9 | 43.5 | 0.00 | 0.00 | 0.00 | 41 | 1012.0 |
| 20260507085516 | 22 | 180 | 20.9 | 45.1 | 0.00 | 0.00 | 0.00 | 41 | 1012.3 |
| 20260507085016 | 22 | 180 | 17.7 | 35.4 | 0.00 | 0.00 | 0.00 | 42 | 1012.2 |
| 20260507084537 | 22 | 158 | 20.9 | 32.2 | 0.00 | 0.00 | 0.00 | 43 | 1012.3 |
| 20260507084036 | 22 | 180 | 24.1 | 43.5 | 0.00 | 0.00 | 0.00 | 40 | 1012.4 |
| 20260507083536 | 21 | 180 | 22.5 | 37.0 | 0.00 | 0.00 | 0.00 | 41 | 1012.4 |
| 20260507083016 | 21 | 180 | 17.7 | 32.2 | 0.00 | 0.00 | 0.00 | 43 | 1012.3 |
| 20260507082516 | 21 | 180 | 20.9 | 37.0 | 0.00 | 0.00 | 0.00 | 43 | 1012.4 |
| 20260507082016 | 21 | 180 | 17.7 | 33.8 | 0.00 | 0.00 | 0.00 | 43 | 1012.3 |
| 20260507081516 | 21 | 180 | 19.3 | 32.2 | 0.00 | 0.00 | 0.00 | 41 | 1012.4 |
| 20260507081036 | 21 | 180 | 16.1 | 30.6 | 0.00 | 0.00 | 0.00 | 45 | 1012.3 |
| 20260507080536 | 21 | 158 | 17.7 | 33.8 | 0.00 | 0.00 | 0.00 | 46 | 1012.5 |
| 20260507080016 | 21 | 180 | 12.9 | 22.5 | 0.00 | 0.00 | 0.00 | 46 | 1012.5 |
| 20260507075516 | 21 | 180 | 17.7 | 30.6 | 0.00 | 0.00 | 0.00 | 47 | 1012.6 |
| 20260507075016 | 21 | 180 | 14.5 | 24.1 | 0.00 | 0.00 | 0.00 | 45 | 1012.8 |
| 20260507074516 | 21 | 180 | 16.1 | 24.1 | 0.00 | 0.00 | 0.00 | 44 | 1012.8 |
| 20260507074036 | 21 | 135 | 12.9 | 29.0 | 0.00 | 0.00 | 0.00 | 44 | 1012.8 |
| 20260507073516 | 21 | 135 | 12.9 | 22.5 | 0.00 | 0.00 | 0.00 | 43 | 1013.0 |
| 20260507073016 | 21 | 158 | 9.7 | 19.3 | 0.00 | 0.00 | 0.00 | 44 | 1013.1 |
| 20260507072516 | 21 | 158 | 9.7 | 25.7 | 0.00 | 0.00 | 0.00 | 43 | 1013.2 |
| 20260507072016 | 21 | 180 | 11.3 | 20.9 | 0.00 | 0.00 | 0.00 | 44 | 1013.0 |
| 20260507071516 | 21 | 180 | 14.5 | 27.4 | 0.00 | 0.00 | 0.00 | 44 | 1013.1 |
| 20260507071036 | 21 | 180 | 16.1 | 27.4 | 0.00 | 0.00 | 0.00 | 44 | 1013.1 |
| 20260507070516 | 21 | 180 | 16.1 | 30.6 | 0.00 | 0.00 | 0.00 | 45 | 1013.2 |
| 20260507070016 | 21 | 180 | 14.5 | 27.4 | 0.00 | 0.00 | 0.00 | 45 | 1013.3 |
| 20260507065516 | 21 | 158 | 11.3 | 29.0 | 0.00 | 0.00 | 0.00 | 44 | 1013.4 |
| 20260507065016 | 21 | 158 | 9.7 | 19.3 | 0.00 | 0.00 | 0.00 | 44 | 1013.4 |
| 20260507064516 | 20 | 158 | 14.5 | 27.4 | 0.00 | 0.00 | 0.00 | 42 | 1013.7 |
| 20260507064016 | 20 | 158 | 17.7 | 30.6 | 0.00 | 0.00 | 0.00 | 43 | 1013.8 |
| 20260507063516 | 20 | 180 | 9.7 | 17.7 | 0.00 | 0.00 | 0.00 | 44 | 1013.8 |
| 20260507063016 | 20 | 180 | 11.3 | 20.9 | 0.00 | 0.00 | 0.00 | 44 | 1013.7 |
| 20260507062516 | 20 | 158 | 14.5 | 27.4 | 0.00 | 0.00 | 0.00 | 44 | 1013.8 |
| 20260507062016 | 20 | 180 | 9.7 | 25.7 | 0.00 | 0.00 | 0.00 | 46 | 1013.8 |
| 20260507061516 | 20 | 203 | 9.7 | 17.7 | 0.00 | 0.00 | 0.00 | 46 | 1013.8 |
| 20260507061018 | 20 | 180 | 11.3 | 20.9 | 0.00 | 0.00 | 0.00 | 45 | 1013.9 |
| 20260507060518 | 19 | 180 | 11.3 | 20.9 | 0.00 | 0.00 | 0.00 | 45 | 1013.8 |
| 20260507060038 | 19 | 203 | 12.9 | 20.9 | 0.00 | 0.00 | 0.00 | 47 | 1013.7 |
| 20260507055518 | 19 | 203 | 14.5 | 24.1 | 0.00 | 0.00 | 0.00 | 49 | 1013.7 |
| 20260507055018 | 19 | 203 | 14.5 | 25.7 | 0.00 | 0.00 | 0.00 | 48 | 1013.7 |
| 20260507054518 | 19 | 203 | 11.3 | 20.9 | 0.00 | 0.00 | 0.00 | 50 | 1013.8 |
| 20260507054018 | 19 | 225 | 14.5 | 24.1 | 0.00 | 0.00 | 0.00 | 50 | 1013.8 |
| 20260507053538 | 19 | 225 | 9.7 | 19.3 | 0.00 | 0.00 | 0.00 | 51 | 1013.8 |
| 20260507053018 | 18 | 225 | 12.9 | 22.5 | 0.00 | 0.00 | 0.00 | 52 | 1013.8 |
| 20260507052518 | 18 | 225 | 11.3 | 17.7 | 0.00 | 0.00 | 0.00 | 53 | 1013.9 |
| 20260507052038 | 18 | 225 | 8.0 | 20.9 | 0.00 | 0.00 | 0.00 | 55 | 1013.8 |
| 20260507051538 | 18 | 225 | 12.9 | 25.7 | 0.00 | 0.00 | 0.00 | 54 | 1013.9 |
| 20260507051018 | 18 | 225 | 12.9 | 20.9 | 0.00 | 0.00 | 0.00 | 58 | 1013.9 |
| 20260507050517 | 18 | 225 | 16.1 | 25.7 | 0.00 | 0.00 | 0.00 | 56 | 1013.9 |
| 20260507050018 | 18 | 225 | 12.9 | 24.1 | 0.00 | 0.00 | 0.00 | 59 | 1013.8 |
| 20260507045518 | 18 | 225 | 16.1 | 24.1 | 0.00 | 0.00 | 0.00 | 60 | 1013.7 |
| 20260507045018 | 18 | 203 | 14.5 | 22.5 | 0.00 | 0.00 | 0.00 | 60 | 1014.0 |
| 20260507044517 | 18 | 203 | 14.5 | 29.0 | 0.00 | 0.00 | 0.00 | 59 | 1014.1 |
| 20260507044019 | 18 | 225 | 11.3 | 20.9 | 0.00 | 0.00 | 0.00 | 58 | 1014.2 |
| 20260507043518 | 18 | 203 | 12.9 | 24.1 | 0.00 | 0.00 | 0.00 | 58 | 1014.1 |
| 20260507043017 | 18 | 180 | 6.4 | 16.1 | 0.00 | 0.00 | 0.00 | 56 | 1014.2 |
| 20260507042518 | 18 | 158 | 11.3 | 24.1 | 0.00 | 0.00 | 0.00 | 54 | 1014.1 |
| 20260507042017 | 18 | 180 | 12.9 | 20.9 | 0.00 | 0.00 | 0.00 | 54 | 1014.2 |
| 20260507041518 | 18 | 203 | 11.3 | 20.9 | 0.00 | 0.00 | 0.00 | 53 | 1014.2 |
| 20260507041018 | 18 | 180 | 9.7 | 19.3 | 0.00 | 0.00 | 0.00 | 53 | 1014.3 |
| 20260507040517 | 18 | 180 | 9.7 | 20.9 | 0.00 | 0.00 | 0.00 | 53 | 1014.2 |
| 20260507040018 | 18 | 180 | 9.7 | 19.3 | 0.00 | 0.00 | 0.00 | 53 | 1014.3 |
| 20260507035517 | 18 | 158 | 6.4 | 14.5 | 0.00 | 0.00 | 0.00 | 53 | 1014.1 |
| 20260507035038 | 18 | 180 | 6.4 | 11.3 | 0.00 | 0.00 | 0.00 | 53 | 1014.1 |
| 20260507034538 | 18 | 180 | 4.8 | 11.3 | 0.00 | 0.00 | 0.00 | 53 | 1014.0 |
| 20260507034038 | 18 | 203 | 9.7 | 17.7 | 0.00 | 0.00 | 0.00 | 53 | 1014.2 |
| 20260507033517 | 18 | 203 | 6.4 | 12.9 | 0.00 | 0.00 | 0.00 | 52 | 1014.0 |
| 20260507033017 | 18 | 203 | 8.0 | 14.5 | 0.00 | 0.00 | 0.00 | 53 | 1013.9 |
| 20260507032518 | 18 | 203 | 4.8 | 9.7 | 0.00 | 0.00 | 0.00 | 54 | 1013.9 |
| 20260507032018 | 18 | 203 | 4.8 | 9.7 | 0.00 | 0.00 | 0.00 | 55 | 1013.9 |
| 20260507031557 | 18 | 225 | 4.8 | 8.0 | 0.00 | 0.00 | 0.00 | 55 | 1013.9 |
| 20260507031017 | 18 | 225 | 6.4 | 14.5 | 0.00 | 0.00 | 0.00 | 57 | 1014.0 |
| 20260507030518 | 18 | 203 | 3.2 | 11.3 | 0.00 | 0.00 | 0.00 | 58 | 1013.8 |
| 20260507030017 | 18 | 225 | 9.7 | 16.1 | 0.00 | 0.00 | 0.00 | 58 | 1013.9 |
| 20260507025517 | 18 | 225 | 8.0 | 14.5 | 0.00 | 0.00 | 0.00 | 59 | 1013.8 |
| 20260507025017 | 18 | 225 | 11.3 | 19.3 | 0.00 | 0.00 | 0.00 | 61 | 1013.8 |
| 20260507024517 | 17 | 225 | 9.7 | 19.3 | 0.00 | 0.00 | 0.00 | 64 | 1013.9 |
| 20260507024017 | 17 | 225 | 8.0 | 14.5 | 0.00 | 0.00 | 0.00 | 66 | 1013.7 |
| 20260507023517 | 17 | 248 | 8.0 | 14.5 | 0.00 | 0.00 | 0.00 | 69 | 1013.7 |
| 20260507023017 | 17 | 225 | 8.0 | 16.1 | 0.00 | 0.00 | 0.00 | 74 | 1014.0 |
| 20260507022537 | 17 | 203 | 6.4 | 11.3 | 0.00 | 0.00 | 0.00 | 77 | 1013.8 |
| 20260507022017 | 17 | 225 | 8.0 | 11.3 | 0.00 | 0.00 | 0.00 | 79 | 1013.8 |
| 20260507021517 | 17 | 225 | 14.5 | 20.9 | 0.00 | 0.00 | 0.00 | 81 | 1014.0 |
| 20260507021017 | 16 | 225 | 12.9 | 20.9 | 0.00 | 0.00 | 0.00 | 82 | 1014.2 |
| 20260507020517 | 16 | 225 | 9.7 | 17.7 | 0.00 | 0.00 | 0.00 | 83 | 1014.2 |
| 20260507020018 | 17 | 225 | 12.9 | 22.5 | 0.00 | 0.00 | 0.00 | 83 | 1014.3 |
| 20260507015517 | 17 | 203 | 9.7 | 19.3 | 0.00 | 0.00 | 0.00 | 81 | 1014.1 |
| 20260507015017 | 16 | 203 | 9.7 | 17.7 | 0.00 | 0.00 | 0.00 | 82 | 1013.9 |
| 20260507014517 | 16 | 203 | 8.0 | 20.9 | 0.00 | 0.00 | 0.00 | 83 | 1014.1 |
| 20260507014017 | 16 | 180 | 6.4 | 11.3 | 0.00 | 0.00 | 0.00 | 83 | 1014.1 |
| 20260507013517 | 16 | 158 | 4.8 | 8.0 | 0.00 | 0.00 | 0.00 | 82 | 1014.2 |
| 20260507013017 | 17 | 180 | 4.8 | 6.4 | 0.00 | 0.00 | 0.00 | 82 | 1014.5 |
| 20260507012517 | 17 | 158 | 4.8 | 8.0 | 0.00 | 0.00 | 0.00 | 82 | 1014.5 |
| 20260507012037 | 17 | 158 | 6.4 | 11.3 | 0.00 | 0.00 | 0.00 | 82 | 1014.5 |
| 20260507011517 | 17 | 180 | 3.2 | 6.4 | 0.00 | 0.00 | 0.00 | 80 | 1014.4 |
| 20260507011017 | 17 | 158 | 3.2 | 8.0 | 0.00 | 0.00 | 0.00 | 79 | 1014.5 |
| 20260507010517 | 17 | 158 | 1.6 | 4.8 | 0.00 | 0.00 | 0.00 | 79 | 1014.6 |
| 20260507010017 | 17 | 180 | 3.2 | 6.4 | 0.00 | 0.00 | 0.00 | 79 | 1014.7 |
| 20260507005517 | 17 | 180 | 3.2 | 9.7 | 0.00 | 0.00 | 0.00 | 78 | 1014.6 |
| 20260507005017 | 17 | 180 | 3.2 | 6.4 | 0.00 | 0.00 | 0.00 | 78 | 1014.6 |
| 20260507004537 | 17 | 158 | 3.2 | 4.8 | 0.00 | 0.00 | 0.00 | 78 | 1014.6 |
| 20260507004017 | 17 | 180 | 1.6 | 4.8 | 0.00 | 0.00 | 0.00 | 78 | 1014.7 |
| 20260507003517 | 17 | 0.0 | 3.2 | 0.00 | 0.00 | 0.00 | 78 | 1014.7 | |
| 20260507003017 | 17 | 158 | 1.6 | 4.8 | 0.00 | 0.00 | 0.00 | 78 | 1014.7 |
| 20260507002517 | 17 | 203 | 1.6 | 3.2 | 0.00 | 0.00 | 0.00 | 78 | 1014.8 |
| 20260507002017 | 17 | 180 | 1.6 | 4.8 | 0.00 | 0.00 | 0.00 | 78 | 1014.8 |
| 20260507001517 | 17 | 180 | 3.2 | 9.7 | 0.00 | 0.00 | 0.00 | 78 | 1014.8 |
| 20260507001017 | 17 | 203 | 6.4 | 11.3 | 0.00 | 0.00 | 0.00 | 78 | 1014.8 |
| 20260507000517 | 17 | 135 | 6.4 | 16.1 | 0.00 | 0.00 | 0.00 | 78 | 1014.8 |
| 20260507000017 | 17 | 158 | 4.8 | 9.7 | 0.00 | 0.00 | 0.00 | 78 | 1014.7 |
| 20260506235517 | 17 | 158 | 6.4 | 11.3 | 0.00 | 0.00 | 0.00 | 78 | 1014.8 |
| 20260506235017 | 17 | 158 | 4.8 | 19.3 | 0.00 | 0.00 | 0.00 | 79 | 1014.7 |
| 20260506234517 | 17 | 158 | 6.4 | 17.7 | 0.00 | 0.00 | 0.00 | 79 | 1014.8 |
| 20260506234017 | 17 | 158 | 8.0 | 14.5 | 0.00 | 0.00 | 0.00 | 79 | 1014.9 |
| 20260506233517 | 17 | 158 | 8.0 | 17.7 | 0.00 | 0.00 | 0.00 | 80 | 1014.9 |
| 20260506233017 | 17 | 158 | 9.7 | 16.1 | 0.00 | 0.00 | 0.00 | 80 | 1014.9 |
| 20260506232517 | 17 | 180 | 8.0 | 17.7 | 0.00 | 0.00 | 0.00 | 80 | 1014.8 |
| 20260506232017 | 17 | 180 | 9.7 | 22.5 | 0.00 | 0.00 | 0.00 | 79 | 1014.8 |
| 20260506231517 | 17 | 158 | 9.7 | 24.1 | 0.00 | 0.00 | 0.00 | 79 | 1014.8 |
| 20260506231017 | 17 | 158 | 9.7 | 20.9 | 0.00 | 0.00 | 0.00 | 78 | 1014.7 |
| 20260506230517 | 17 | 158 | 14.5 | 25.7 | 0.00 | 0.00 | 0.00 | 78 | 1014.6 |
| 20260506230017 | 17 | 158 | 14.5 | 25.7 | 0.00 | 0.00 | 0.00 | 78 | 1014.6 |
| 20260506225517 | 17 | 158 | 11.3 | 27.4 | 0.00 | 0.00 | 0.00 | 78 | 1014.5 |